Time;durP1;ratioP1;P1;durP2;ratioP2;P2;SDS_P1;SDS_P2;PMS_P1;PMS_P2;Temp;Humidity;BMP_temperature;BMP_pressure;BME280_temperature;BME280_humidity;BME280_pressure;Samples;Min_cycle;Max_cycle;Signal;HPM_P1;HPM_P2
2022/09/05 00:00:09;;;;;;;;;;;;;;;20.94;51.77;100268.19;4469535;31;33925;-64
2022/09/05 00:02:51;;;;;;;;;;;;;;;20.92;51.83;100278.38;4479286;32;33872;-64
2022/09/05 00:05:19;;;;;;;;;;;;;;;20.85;52.20;100274.63;4475755;32;34961;-64
2022/09/05 00:07:46;;;;;;;;;;;;;;;20.96;51.82;100276.16;4469290;32;34382;-64
2022/09/05 00:10:31;;;;;;;;;;;;;;;21.01;51.59;100273.78;4472184;32;34305;-65
2022/09/05 00:13:04;;;;;;;;;;;;;;;20.80;52.25;100276.16;4468826;32;32889;-65
2022/09/05 00:15:49;;;;;;;;;;;;;;;21.04;51.42;100276.19;4477764;32;34668;-65
2022/09/05 00:18:35;;;;;;;;;;;;;;;21.04;51.39;100275.34;4471956;32;33974;-63
2022/09/05 00:21:26;;;;;;;;;;;;;;;21.07;51.31;100275.84;4480030;32;35609;-64
2022/09/05 00:24:29;;;;;;;;;;;;;;;20.99;51.16;100273.09;4471458;32;34088;-63
2022/09/05 00:27:22;;;;;;;;;;;;;;;20.97;51.22;100286.06;4478620;31;34341;-63
2022/09/05 00:30:01;;;;;;;;;;;;;;;20.82;51.85;100279.56;4466842;32;33784;-63
2022/09/05 00:33:04;;;;;;;;;;;;;;;20.72;52.22;100276.16;4479015;31;35133;-63
2022/09/05 00:36:03;;;;;;;;;;;;;;;20.78;52.16;100270.03;4475286;32;34562;-64
2022/09/05 00:38:31;;;;;;;;;;;;;;;20.75;52.18;100271.22;4469359;32;34627;-64
2022/09/05 00:41:04;;;;;;;;;;;;;;;20.69;52.52;100269.19;4471717;32;34655;-64
2022/09/05 00:43:36;;;;;;;;;;;;;;;20.76;52.60;100261.19;4470008;31;33207;-64
2022/09/05 00:46:06;;;;;;;;;;;;;;;20.90;51.91;100268.72;4480537;32;34219;-64
2022/09/05 00:48:41;;;;;;;;;;;;;;;20.85;51.98;100271.06;4479449;32;33678;-64
2022/09/05 00:51:27;;;;;;;;;;;;;;;20.86;51.65;100273.59;4472906;32;32373;-63
2022/09/05 00:54:01;;;;;;;;;;;;;;;20.75;51.89;100268.50;4471967;32;34348;-64
2022/09/05 00:56:34;;;;;;;;;;;;;;;20.55;52.33;100272.56;4477403;32;32582;-64
2022/09/05 00:59:02;;;;;;;;;;;;;;;20.67;51.77;100272.06;4473227;32;35944;-64
2022/09/05 01:01:30;;;;;;;;;;;;;;;20.57;51.83;100265.91;4474050;31;33689;-64
2022/09/05 01:04:04;;;;;;;;;;;;;;;20.65;51.49;100275.97;4469817;32;35336;-64
2022/09/05 01:06:36;;;;;;;;;;;;;;;20.48;52.21;100265.03;4474501;31;34130;-64
2022/09/05 01:09:09;;;;;;;;;;;;;;;20.35;52.55;100267.37;4480833;32;37296;-64
2022/09/05 01:11:56;;;;;;;;;;;;;;;20.44;52.01;100257.34;4467733;32;32018;-64
2022/09/05 01:14:26;;;;;;;;;;;;;;;20.49;51.73;100268.59;4467904;32;35378;-64
2022/09/05 01:17:00;;;;;;;;;;;;;;;20.38;51.83;100260.72;4480294;32;34423;-64
2022/09/05 01:19:27;;;;;;;;;;;;;;;20.22;52.39;100269.69;4471264;32;34336;-64
2022/09/05 01:22:07;;;;;;;;;;;;;;;20.32;52.31;100261.37;4479296;31;33641;-64
2022/09/05 01:24:40;;;;;;;;;;;;;;;20.31;52.74;100263.25;4478678;32;34946;-64
2022/09/05 01:27:26;;;;;;;;;;;;;;;20.37;52.51;100267.19;4473933;32;34120;-64
2022/09/05 01:30:16;;;;;;;;;;;;;;;20.33;52.57;100263.13;4482298;32;35413;-64
2022/09/05 01:33:00;;;;;;;;;;;;;;;20.50;52.08;100261.28;4475752;32;31809;-64
2022/09/05 01:35:35;;;;;;;;;;;;;;;20.52;52.17;100264.72;4474468;32;34358;-64
2022/09/05 01:38:10;;;;;;;;;;;;;;;20.57;52.08;100263.19;4485299;32;34441;-64
2022/09/05 01:40:38;;;;;;;;;;;;;;;20.49;51.95;100265.88;4483966;32;34177;-64
2022/09/05 01:43:09;;;;;;;;;;;;;;;20.51;51.87;100266.56;4485355;32;34767;-64
2022/09/05 01:45:44;;;;;;;;;;;;;;;20.51;51.84;100263.84;4482061;32;34036;-64
2022/09/05 01:48:12;;;;;;;;;;;;;;;20.53;51.66;100269.12;4484979;32;34326;-64
2022/09/05 01:50:46;;;;;;;;;;;;;;;20.46;51.63;100271.66;4482190;32;35035;-64
2022/09/05 01:53:30;;;;;;;;;;;;;;;20.60;51.39;100265.56;4483831;32;33807;-63
2022/09/05 01:56:16;;;;;;;;;;;;;;;20.61;51.27;100267.31;4477299;32;34000;-63
2022/09/05 01:58:53;;;;;;;;;;;;;;;20.69;51.04;100266.44;4484843;32;34497;-64
2022/09/05 02:01:27;;;;;;;;;;;;;;;20.63;50.99;100273.41;4483364;32;34549;-63
2022/09/05 02:04:09;;;;;;;;;;;;;;;20.72;50.61;100268.84;4481612;32;33298;-63
2022/09/05 02:06:39;;;;;;;;;;;;;;;20.70;50.76;100274.44;4480575;32;33929;-63
2022/09/05 02:09:19;;;;;;;;;;;;;;;20.64;51.26;100271.53;4483096;32;35095;-63
2022/09/05 02:11:52;;;;;;;;;;;;;;;20.70;50.95;100270.87;4483474;32;34992;-64
2022/09/05 02:14:25;;;;;;;;;;;;;;;20.65;51.19;100275.97;4483305;32;34598;-64
2022/09/05 02:17:08;;;;;;;;;;;;;;;20.60;51.07;100267.44;4479894;32;31425;-64
2022/09/05 02:20:12;;;;;;;;;;;;;;;20.29;51.62;100270.75;4474855;32;34534;-64
2022/09/05 02:22:59;;;;;;;;;;;;;;;20.31;51.63;100270.56;4484284;32;34631;-64
2022/09/05 02:25:28;;;;;;;;;;;;;;;20.24;51.51;100271.22;4480924;32;33507;-64
2022/09/05 02:28:36;;;;;;;;;;;;;;;20.37;51.17;100264.47;4483850;32;35208;-64
2022/09/05 02:31:06;;;;;;;;;;;;;;;20.45;50.93;100268.09;4467157;32;34066;-63
2022/09/05 02:33:51;;;;;;;;;;;;;;;20.47;51.03;100276.91;4480101;32;34531;-63
2022/09/05 02:36:31;;;;;;;;;;;;;;;20.35;51.35;100270.09;4474689;32;32981;-63
2022/09/05 02:38:59;;;;;;;;;;;;;;;20.27;51.61;100274.66;4478928;32;33210;-63
2022/09/05 02:41:53;;;;;;;;;;;;;;;20.29;51.47;100267.16;4479408;32;34320;-63
2022/09/05 02:44:53;;;;;;;;;;;;;;;20.37;51.20;100269.91;4480112;32;34365;-63
2022/09/05 02:47:52;;;;;;;;;;;;;;;20.35;51.24;100271.94;4475709;32;33338;-63
2022/09/05 02:50:20;;;;;;;;;;;;;;;20.40;51.16;100280.47;4480914;32;33977;-63
2022/09/05 02:53:09;;;;;;;;;;;;;;;20.37;51.23;100272.62;4477320;32;35765;-64
2022/09/05 02:56:12;;;;;;;;;;;;;;;20.46;51.05;100277.09;4470957;32;34170;-64
2022/09/05 02:59:03;;;;;;;;;;;;;;;20.40;51.14;100275.88;4476397;32;33246;-64
2022/09/05 03:01:56;;;;;;;;;;;;;;;20.43;50.78;100280.13;4479051;31;33906;-64
2022/09/05 03:04:26;;;;;;;;;;;;;;;20.42;50.86;100279.28;4475731;32;33946;-63
2022/09/05 03:07:04;;;;;;;;;;;;;;;20.39;51.03;100281.47;4477657;32;34255;-64
2022/09/05 03:09:38;;;;;;;;;;;;;;;20.31;51.34;100276.00;4476473;32;32478;-65
2022/09/05 03:12:14;;;;;;;;;;;;;;;20.26;51.42;100287.38;4468940;31;33106;-64
2022/09/05 03:14:59;;;;;;;;;;;;;;;20.23;51.43;100290.44;4480977;32;33520;-63
2022/09/05 03:17:45;;;;;;;;;;;;;;;20.22;51.49;100288.72;4479851;32;34519;-62
2022/09/05 03:20:31;;;;;;;;;;;;;;;20.23;51.51;100288.56;4478135;31;33791;-62
2022/09/05 03:23:05;;;;;;;;;;;;;;;20.16;51.51;100287.53;4465170;32;35265;-63
2022/09/05 03:25:54;;;;;;;;;;;;;;;20.01;51.96;100281.84;4467037;32;34701;-63
2022/09/05 03:28:40;;;;;;;;;;;;;;;19.91;52.29;100289.25;4478960;32;32769;-65
2022/09/05 03:31:07;;;;;;;;;;;;;;;19.92;51.86;100287.41;4475981;31;34200;-62
2022/09/05 03:33:54;;;;;;;;;;;;;;;19.80;52.26;100285.97;4481097;32;34380;-63
2022/09/05 03:36:37;;;;;;;;;;;;;;;19.85;51.89;100289.91;4476684;31;34113;-63
2022/09/05 03:39:23;;;;;;;;;;;;;;;19.95;51.55;100297.94;4480847;32;33075;-63
2022/09/05 03:41:57;;;;;;;;;;;;;;;20.01;51.50;100294.56;4477959;31;33710;-63
2022/09/05 03:44:29;;;;;;;;;;;;;;;20.03;51.30;100297.97;4475548;32;34155;-63
2022/09/05 03:47:03;;;;;;;;;;;;;;;20.07;51.10;100302.09;4470359;32;35120;-64
2022/09/05 03:49:49;;;;;;;;;;;;;;;20.06;51.40;100300.34;4467969;32;35299;-64
2022/09/05 03:52:49;;;;;;;;;;;;;;;20.02;51.69;100302.56;4476112;32;32356;-63
2022/09/05 03:55:46;;;;;;;;;;;;;;;19.94;51.77;100302.53;4481649;32;32978;-63
2022/09/05 03:58:50;;;;;;;;;;;;;;;19.88;51.71;100305.88;4466859;32;34137;-63
2022/09/05 04:01:28;;;;;;;;;;;;;;;19.92;51.82;100309.13;4473876;32;34469;-63
2022/09/05 04:04:20;;;;;;;;;;;;;;;20.02;51.29;100313.41;4471056;32;33458;-63
2022/09/05 04:07:10;;;;;;;;;;;;;;;19.94;51.61;100313.38;4482312;31;34200;-63
2022/09/05 04:10:06;;;;;;;;;;;;;;;20.03;51.07;100314.25;4472037;32;32865;-63
2022/09/05 04:12:35;;;;;;;;;;;;;;;20.04;50.82;100315.16;4474736;31;34521;-62
2022/09/05 04:15:04;;;;;;;;;;;;;;;20.04;50.91;100318.72;4468921;32;33493;-61
2022/09/05 04:17:36;;;;;;;;;;;;;;;19.99;50.98;100316.47;4473255;32;33845;-61
2022/09/05 04:20:10;;;;;;;;;;;;;;;20.10;50.68;100328.94;4473332;32;35753;-62
2022/09/05 04:22:56;;;;;;;;;;;;;;;20.11;50.49;100325.19;4477376;32;35388;-62
2022/09/05 04:25:43;;;;;;;;;;;;;;;20.14;50.50;100329.44;4480926;31;33779;-62
2022/09/05 04:28:31;;;;;;;;;;;;;;;20.19;50.44;100338.84;4479566;32;34834;-63
2022/09/05 04:31:16;;;;;;;;;;;;;;;20.23;50.63;100340.19;4470995;32;35069;-62
2022/09/05 04:33:55;;;;;;;;;;;;;;;20.31;50.34;100343.97;4463355;32;32747;-63
2022/09/05 04:36:25;;;;;;;;;;;;;;;20.33;50.09;100345.50;4480714;31;33065;-62
2022/09/05 04:39:07;;;;;;;;;;;;;;;20.36;50.07;100347.06;4479891;32;33256;-62
2022/09/05 04:41:39;;;;;;;;;;;;;;;20.40;50.08;100343.84;4480737;31;34231;-63
2022/09/05 04:44:14;;;;;;;;;;;;;;;20.35;50.71;100350.78;4480928;32;32442;-62
2022/09/05 04:46:44;;;;;;;;;;;;;;;20.37;51.16;100352.31;4479384;32;33611;-62
2022/09/05 04:49:23;;;;;;;;;;;;;;;20.48;50.68;100354.75;4465697;32;34916;-64
2022/09/05 04:51:50;;;;;;;;;;;;;;;20.60;50.20;100352.59;4478639;31;34134;-63
2022/09/05 04:54:28;;;;;;;;;;;;;;;20.53;50.56;100350.72;4472888;32;34402;-64
2022/09/05 04:57:29;;;;;;;;;;;;;;;20.49;50.82;100358.31;4478746;31;33796;-63
2022/09/05 04:59:59;;;;;;;;;;;;;;;20.54;50.44;100352.41;4441066;32;35757;-63
2022/09/05 05:02:47;;;;;;;;;;;;;;;20.48;50.71;100357.47;4466629;32;33840;-64
2022/09/05 05:05:47;;;;;;;;;;;;;;;20.53;50.68;100362.44;4467823;32;34204;-63
2022/09/05 05:08:52;;;;;;;;;;;;;;;20.63;50.45;100362.31;4479254;31;33614;-63
2022/09/05 05:11:19;;;;;;;;;;;;;;;20.78;49.99;100359.81;4480687;32;34087;-63
2022/09/05 05:14:19;;;;;;;;;;;;;;;21.26;48.88;100363.66;4470128;32;35064;-63
2022/09/05 05:17:25;;;;;;;;;;;;;;;21.72;47.59;100362.13;4472783;32;34610;-63
2022/09/05 05:20:15;;;;;;;;;;;;;;;22.20;46.48;100356.78;4467156;32;34772;-63
2022/09/05 05:23:04;;;;;;;;;;;;;;;22.17;46.85;100354.41;4471726;32;34110;-64
2022/09/05 05:26:00;;;;;;;;;;;;;;;22.23;46.71;100357.28;4482926;31;34248;-63
2022/09/05 05:28:30;;;;;;;;;;;;;;;22.26;46.76;100356.09;4475845;32;33123;-63
2022/09/05 05:31:07;;;;;;;;;;;;;;;22.32;46.96;100360.84;4467333;31;33304;-64
2022/09/05 05:33:34;;;;;;;;;;;;;;;22.50;46.67;100357.84;4471993;32;34354;-63
2022/09/05 05:36:03;;;;;;;;;;;;;;;22.63;46.35;100358.16;4477318;31;35271;-64
2022/09/05 05:38:50;;;;;;;;;;;;;;;22.65;45.82;100363.41;4474491;32;35614;-63
2022/09/05 05:41:36;;;;;;;;;;;;;;;21.88;46.59;100363.97;4480511;31;34271;-63
2022/09/05 05:44:11;;;;;;;;;;;;;;;22.15;46.21;100357.28;4481801;32;34056;-62
2022/09/05 05:46:39;;;;;;;;;;;;;;;22.08;46.39;100370.75;4478448;31;33066;-62
2022/09/05 05:49:18;;;;;;;;;;;;;;;22.14;46.62;100369.19;4479387;32;34476;-62
2022/09/05 05:52:11;;;;;;;;;;;;;;;22.19;46.96;100368.72;4476855;32;34307;-62
2022/09/05 05:54:50;;;;;;;;;;;;;;;22.21;47.28;100369.37;4467103;32;33928;-62
2022/09/05 05:58:03;;;;;;;;;;;;;;;22.91;45.89;100371.28;4471723;32;34193;-63
2022/09/05 06:00:46;;;;;;;;;;;;;;;23.40;44.88;100368.25;4464293;32;34311;-62
2022/09/05 06:03:21;;;;;;;;;;;;;;;23.30;45.30;100371.22;4467580;32;32078;-63
2022/09/05 06:06:11;;;;;;;;;;;;;;;23.15;45.89;100373.06;4478551;32;35373;-63
2022/09/05 06:08:42;;;;;;;;;;;;;;;23.05;46.83;100370.56;4467807;32;34040;-64
2022/09/05 06:11:43;;;;;;;;;;;;;;;23.05;47.22;100378.75;4477725;32;35436;-62
2022/09/05 06:14:40;;;;;;;;;;;;;;;22.84;47.63;100381.25;4469438;32;31879;-62
2022/09/05 06:17:46;;;;;;;;;;;;;;;22.66;47.58;100379.59;4476608;32;34989;-61
2022/09/05 06:20:23;;;;;;;;;;;;;;;22.74;46.85;100370.53;4480096;32;35470;-61
2022/09/05 06:23:12;;;;;;;;;;;;;;;22.58;47.03;100376.94;4476964;32;33942;-62
2022/09/05 06:26:18;;;;;;;;;;;;;;;22.63;47.89;100379.09;4477656;32;33904;-62
2022/09/05 06:28:51;;;;;;;;;;;;;;;22.45;48.13;100374.75;4466531;31;34251;-62
2022/09/05 06:31:23;;;;;;;;;;;;;;;22.44;48.19;100381.25;4478424;32;32945;-62
2022/09/05 06:34:12;;;;;;;;;;;;;;;22.51;47.79;100379.50;4469784;32;33163;-62
2022/09/05 06:37:15;;;;;;;;;;;;;;;22.42;48.27;100379.72;4466117;32;34284;-62
2022/09/05 06:39:43;;;;;;;;;;;;;;;22.46;47.74;100384.62;4471846;31;33030;-62
2022/09/05 06:42:16;;;;;;;;;;;;;;;22.38;48.20;100381.09;4478215;32;34303;-62
2022/09/05 06:45:09;;;;;;;;;;;;;;;22.47;48.35;100388.22;4475190;31;34432;-62
2022/09/05 06:47:57;;;;;;;;;;;;;;;22.69;47.45;100395.63;4476746;32;33860;-61
2022/09/05 06:50:26;;;;;;;;;;;;;;;22.81;47.08;100401.53;4480330;32;32885;-62
2022/09/05 06:52:57;;;;;;;;;;;;;;;22.62;46.89;100399.25;4478753;32;33302;-62
2022/09/05 06:55:40;;;;;;;;;;;;;;;22.97;46.24;100398.75;4475484;32;35274;-62
2022/09/05 06:58:26;;;;;;;;;;;;;;;23.06;46.30;100402.28;4470051;31;33504;-62
2022/09/05 07:00:54;;;;;;;;;;;;;;;23.14;46.22;100395.91;4470601;32;33800;-62
2022/09/05 07:03:51;;;;;;;;;;;;;;;22.61;48.12;100398.41;4478464;32;34270;-62
2022/09/05 07:06:23;;;;;;;;;;;;;;;23.28;46.88;100394.31;4463142;32;33083;-62
2022/09/05 07:09:28;;;;;;;;;;;;;;;23.34;46.21;100388.97;4464185;32;32762;-62
2022/09/05 07:12:02;;;;;;;;;;;;;;;23.45;46.40;100394.00;4467301;32;34243;-62
2022/09/05 07:14:31;;;;;;;;;;;;;;;23.13;46.91;100405.16;4474156;32;35079;-62
2022/09/05 07:17:09;;;;;;;;;;;;;;;23.22;47.11;100398.62;4476176;32;33711;-62
2022/09/05 07:19:38;;;;;;;;;;;;;;;23.35;47.21;100409.78;4477846;31;32291;-63
2022/09/05 07:22:25;;;;;;;;;;;;;;;23.63;46.59;100399.16;4481113;32;34975;-62
2022/09/05 07:25:14;;;;;;;;;;;;;;;23.43;46.29;100401.50;4480775;31;35517;-62
2022/09/05 07:27:52;;;;;;;;;;;;;;;23.67;46.31;100405.94;4477199;32;34219;-61
2022/09/05 07:30:51;;;;;;;;;;;;;;;23.22;47.60;100406.81;4468606;32;34636;-62
2022/09/05 07:33:19;;;;;;;;;;;;;;;23.55;46.65;100406.56;4480867;32;35248;-62
2022/09/05 07:35:47;;;;;;;;;;;;;;;23.68;45.49;100407.66;4481945;31;35400;-62
2022/09/05 07:38:14;;;;;;;;;;;;;;;23.65;46.58;100396.22;4482065;32;34270;-62
2022/09/05 07:40:45;;;;;;;;;;;;;;;23.70;45.88;100400.16;4474702;32;33758;-62
2022/09/05 07:43:15;;;;;;;;;;;;;;;23.96;45.82;100400.78;4469962;32;34389;-62
2022/09/05 07:45:52;;;;;;;;;;;;;;;23.81;45.65;100408.94;4466196;32;34147;-62
2022/09/05 07:48:23;;;;;;;;;;;;;;;23.79;44.69;100402.78;4468096;32;35394;-62
2022/09/05 07:51:02;;;;;;;;;;;;;;;23.93;44.72;100394.62;4468732;32;34715;-62
2022/09/05 07:53:51;;;;;;;;;;;;;;;23.88;44.22;100405.28;4475440;32;34088;-62
2022/09/05 07:56:49;;;;;;;;;;;;;;;24.29;42.14;100396.66;4472923;32;35464;-62
2022/09/05 07:59:38;;;;;;;;;;;;;;;24.30;41.85;100395.63;4477450;32;34390;-62
2022/09/05 08:02:07;;;;;;;;;;;;;;;24.59;42.59;100391.19;4473657;31;33625;-62
2022/09/05 08:04:35;;;;;;;;;;;;;;;24.54;43.44;100394.50;4473710;32;33995;-68
2022/09/05 08:07:15;;;;;;;;;;;;;;;24.27;42.10;100390.53;4473919;31;35443;-62
2022/09/05 08:10:06;;;;;;;;;;;;;;;24.47;42.04;100392.75;4477496;32;34283;-62
2022/09/05 08:12:38;;;;;;;;;;;;;;;24.54;42.70;100391.78;4476541;31;33139;-65
2022/09/05 08:15:26;;;;;;;;;;;;;;;25.01;41.58;100397.84;4468495;32;34476;-62
2022/09/05 08:18:15;;;;;;;;;;;;;;;25.18;41.56;100403.97;4475906;32;34279;-62
2022/09/05 08:21:02;;;;;;;;;;;;;;;25.44;40.33;100401.50;4474772;32;34454;-62
2022/09/05 08:23:32;;;;;;;;;;;;;;;25.57;39.84;100406.25;4477453;31;33185;-63
2022/09/05 08:26:19;;;;;;;;;;;;;;;25.23;39.21;100396.87;4472090;32;32725;-62
2022/09/05 08:29:05;;;;;;;;;;;;;;;24.71;39.82;100395.16;4477102;31;34507;-63
2022/09/05 08:31:35;;;;;;;;;;;;;;;25.39;39.33;100393.00;4476547;32;35286;-62
2022/09/05 08:34:10;;;;;;;;;;;;;;;25.77;39.68;100401.78;4475543;32;33606;-62
2022/09/05 08:36:45;;;;;;;;;;;;;;;25.69;39.73;100401.94;4476674;32;34194;-63
2022/09/05 08:39:15;;;;;;;;;;;;;;;25.41;39.70;100395.56;4479193;32;33064;-62
2022/09/05 08:41:48;;;;;;;;;;;;;;;25.92;39.64;100389.94;4480636;31;34970;-67
2022/09/05 08:44:38;;;;;;;;;;;;;;;26.01;39.55;100389.56;4474892;32;32243;-64
2022/09/05 08:47:35;;;;;;;;;;;;;;;25.82;38.90;100393.00;4472339;32;34499;-63
2022/09/05 08:50:22;;;;;;;;;;;;;;;25.88;38.92;100385.91;4467570;32;34091;-63
2022/09/05 08:53:02;;;;;;;;;;;;;;;26.00;39.16;100387.88;4465467;32;33122;-65
2022/09/05 08:56:09;;;;;;;;;;;;;;;26.12;37.53;100379.09;4482384;31;33329;-66
2022/09/05 08:58:42;;;;;;;;;;;;;;;25.53;39.96;100380.28;4478147;32;32867;-64
2022/09/05 09:01:10;;;;;;;;;;;;;;;25.76;39.18;100385.53;4478868;31;34244;-63
2022/09/05 09:03:38;;;;;;;;;;;;;;;25.97;39.01;100379.19;4477803;32;33578;-63
2022/09/05 09:06:13;;;;;;;;;;;;;;;26.56;38.24;100370.53;4478495;32;34063;-63
2022/09/05 09:09:01;;;;;;;;;;;;;;;25.92;39.61;100363.34;4476568;31;33949;-65
2022/09/05 09:11:50;;;;;;;;;;;;;;;25.62;40.66;100370.88;4475438;32;34218;-64
2022/09/05 09:14:30;;;;;;;;;;;;;;;26.17;39.01;100369.22;4465470;32;33863;-64
2022/09/05 09:17:17;;;;;;;;;;;;;;;26.30;39.31;100351.16;4477144;32;33906;-65
2022/09/05 09:19:49;;;;;;;;;;;;;;;26.14;39.00;100358.66;4481527;32;33567;-65
2022/09/05 09:22:35;;;;;;;;;;;;;;;26.65;38.26;100352.81;4470491;32;34112;-64
2022/09/05 09:25:10;;;;;;;;;;;;;;;26.51;38.30;100352.97;4479520;32;34389;-63
2022/09/05 09:27:45;;;;;;;;;;;;;;;26.63;38.47;100352.16;4471215;32;34547;-64
2022/09/05 09:30:33;;;;;;;;;;;;;;;27.10;37.88;100350.44;4483018;32;33052;-64
2022/09/05 09:33:01;;;;;;;;;;;;;;;27.20;37.14;100361.03;4468567;32;35286;-64
2022/09/05 09:35:49;;;;;;;;;;;;;;;26.90;38.25;100353.13;4472789;32;34145;-63
2022/09/05 09:38:20;;;;;;;;;;;;;;;27.31;37.93;100359.56;4472803;32;33299;-65
2022/09/05 09:40:59;;;;;;;;;;;;;;;27.53;36.76;100360.25;4473854;32;34333;-64
2022/09/05 09:43:47;;;;;;;;;;;;;;;27.56;36.18;100363.41;4484566;32;33000;-63
2022/09/05 09:46:33;;;;;;;;;;;;;;;27.49;36.83;100356.22;4471413;32;35030;-63
2022/09/05 09:49:09;;;;;;;;;;;;;;;27.41;37.28;100357.25;4484210;32;33708;-63
2022/09/05 09:52:01;;;;;;;;;;;;;;;27.18;37.14;100355.75;4483682;32;34142;-63
2022/09/05 09:54:31;;;;;;;;;;;;;;;27.49;37.13;100354.31;4481274;32;34463;-63
2022/09/05 09:57:17;;;;;;;;;;;;;;;27.43;36.90;100348.81;4483846;32;35984;-63
2022/09/05 09:59:46;;;;;;;;;;;;;;;26.60;37.95;100355.31;4485168;32;33130;-63
2022/09/05 10:02:24;;;;;;;;;;;;;;;27.17;36.72;100351.31;4480801;32;33973;-63
2022/09/05 10:05:17;;;;;;;;;;;;;;;27.17;37.00;100351.31;4485045;32;34129;-62
2022/09/05 10:08:23;;;;;;;;;;;;;;;27.17;37.04;100348.56;4478508;31;33918;-65
2022/09/05 10:11:17;;;;;;;;;;;;;;;27.50;36.09;100344.16;4479357;32;33648;-65
2022/09/05 10:14:23;;;;;;;;;;;;;;;27.43;36.98;100354.31;4469972;32;32862;-64
2022/09/05 10:17:17;;;;;;;;;;;;;;;27.60;35.83;100344.56;4475391;32;32864;-66
2022/09/05 10:19:54;;;;;;;;;;;;;;;27.82;36.28;100342.50;4469118;32;33880;-64
2022/09/05 10:22:44;;;;;;;;;;;;;;;27.70;36.09;100341.41;4472554;32;33125;-64
2022/09/05 10:25:11;;;;;;;;;;;;;;;28.02;35.56;100340.53;4479928;32;34171;-64
2022/09/05 10:27:51;;;;;;;;;;;;;;;28.01;35.01;100338.03;4469127;32;34350;-63
2022/09/05 10:30:22;;;;;;;;;;;;;;;27.69;36.14;100331.47;4482693;32;33972;-65
2022/09/05 10:33:16;;;;;;;;;;;;;;;27.93;34.91;100332.72;4483154;32;34328;-65
2022/09/05 10:36:22;;;;;;;;;;;;;;;28.13;35.30;100332.72;4484244;32;33608;-64
2022/09/05 10:38:59;;;;;;;;;;;;;;;28.63;34.43;100328.31;4483248;32;35429;-64
2022/09/05 10:41:30;;;;;;;;;;;;;;;28.40;35.26;100317.84;4468089;32;34232;-63
2022/09/05 10:44:00;;;;;;;;;;;;;;;28.96;33.77;100319.91;4480994;32;33685;-63
2022/09/05 10:46:31;;;;;;;;;;;;;;;29.04;34.35;100317.97;4474274;32;34909;-64
2022/09/05 10:49:20;;;;;;;;;;;;;;;29.36;33.49;100316.88;4475611;32;32626;-64
2022/09/05 10:51:52;;;;;;;;;;;;;;;29.15;33.44;100308.97;4479866;32;34325;-64
2022/09/05 10:54:26;;;;;;;;;;;;;;;29.23;33.04;100312.31;4455708;32;32726;-65
2022/09/05 10:57:10;;;;;;;;;;;;;;;29.06;33.17;100307.59;4484967;32;35202;-64
2022/09/05 10:59:43;;;;;;;;;;;;;;;29.18;32.74;100303.03;4467856;32;35558;-65
2022/09/05 11:02:31;;;;;;;;;;;;;;;28.99;33.32;100302.94;4482153;32;34749;-65
2022/09/05 11:05:16;;;;;;;;;;;;;;;28.91;33.70;100308.69;4458944;32;33396;-65
2022/09/05 11:08:02;;;;;;;;;;;;;;;28.66;33.55;100302.25;4475767;32;34367;-66
2022/09/05 11:10:48;;;;;;;;;;;;;;;28.70;34.24;100301.63;4482162;32;34332;-66
2022/09/05 11:13:16;;;;;;;;;;;;;;;28.60;34.57;100294.87;4472522;32;34401;-66
2022/09/05 11:16:05;;;;;;;;;;;;;;;28.59;34.69;100298.69;4482948;32;33662;-66
2022/09/05 11:18:38;;;;;;;;;;;;;;;29.07;33.84;100293.56;4467071;32;32788;-65
2022/09/05 11:21:25;;;;;;;;;;;;;;;29.37;31.98;100291.00;4475490;32;33523;-66
2022/09/05 11:23:53;;;;;;;;;;;;;;;29.20;33.54;100289.88;4480520;32;33397;-64
2022/09/05 11:26:41;;;;;;;;;;;;;;;29.32;32.92;100293.59;4481361;32;34340;-63
2022/09/05 11:29:09;;;;;;;;;;;;;;;29.35;32.58;100289.56;4466376;32;32969;-63
2022/09/05 11:31:37;;;;;;;;;;;;;;;29.18;32.81;100292.00;4476867;32;34854;-64
2022/09/05 11:34:34;;;;;;;;;;;;;;;28.98;33.22;100286.59;4478157;32;35745;-63
2022/09/05 11:37:27;;;;;;;;;;;;;;;29.32;32.03;100287.25;4478775;32;32343;-62
2022/09/05 11:40:21;;;;;;;;;;;;;;;29.18;32.84;100292.00;4471947;32;34197;-62
2022/09/05 11:43:14;;;;;;;;;;;;;;;29.23;32.75;100293.03;4477100;32;34238;-62
2022/09/05 11:46:00;;;;;;;;;;;;;;;29.22;33.24;100288.59;4483539;32;32956;-63
2022/09/05 11:48:31;;;;;;;;;;;;;;;29.16;32.92;100280.38;4482698;32;32038;-62
2022/09/05 11:51:25;;;;;;;;;;;;;;;29.04;33.65;100277.47;4471568;32;35565;-62
2022/09/05 11:54:00;;;;;;;;;;;;;;;28.96;32.85;100278.56;4475102;32;33025;-62
2022/09/05 11:56:38;;;;;;;;;;;;;;;28.71;33.05;100274.91;4479267;32;34484;-62
2022/09/05 11:59:27;;;;;;;;;;;;;;;28.87;32.66;100271.63;4471139;32;32313;-63
2022/09/05 12:02:00;;;;;;;;;;;;;;;28.80;32.58;100268.09;4478416;31;35290;-62
2022/09/05 12:05:07;;;;;;;;;;;;;;;28.72;33.50;100276.59;4478612;32;34432;-63
2022/09/05 12:07:59;;;;;;;;;;;;;;;28.76;33.40;100273.19;4451636;32;34796;-62
2022/09/05 12:10:39;;;;;;;;;;;;;;;28.63;33.05;100270.50;4482298;32;33394;-62
2022/09/05 12:13:18;;;;;;;;;;;;;;;28.67;33.64;100270.87;4482462;32;32664;-62
2022/09/05 12:15:51;;;;;;;;;;;;;;;28.72;33.41;100274.69;4480841;32;33737;-62
2022/09/05 12:18:54;;;;;;;;;;;;;;;28.64;34.29;100266.69;4481104;32;33470;-62
2022/09/05 12:21:34;;;;;;;;;;;;;;;28.32;34.61;100268.50;4469241;32;32423;-63
2022/09/05 12:24:15;;;;;;;;;;;;;;;28.51;34.08;100264.84;4470011;32;34070;-63
2022/09/05 12:27:03;;;;;;;;;;;;;;;28.54;33.89;100260.81;4483947;32;34171;-62
2022/09/05 12:29:53;;;;;;;;;;;;;;;28.44;34.13;100258.50;4473749;32;34130;-62
2022/09/05 12:32:26;;;;;;;;;;;;;;;28.36;33.96;100256.00;4477360;32;34125;-62
2022/09/05 12:35:21;;;;;;;;;;;;;;;28.39;34.22;100251.97;4483540;32;34425;-63
2022/09/05 12:38:13;;;;;;;;;;;;;;;28.29;34.36;100253.28;4466647;32;32777;-63
2022/09/05 12:41:20;;;;;;;;;;;;;;;28.49;34.42;100253.19;4468117;32;34183;-63
2022/09/05 12:44:19;;;;;;;;;;;;;;;28.35;34.76;100246.06;4482003;32;33362;-62
2022/09/05 12:47:10;;;;;;;;;;;;;;;28.20;34.70;100243.56;4476943;32;34149;-62
2022/09/05 12:50:00;;;;;;;;;;;;;;;28.32;33.80;100240.97;4474707;32;33985;-62
2022/09/05 12:52:43;;;;;;;;;;;;;;;28.14;34.07;100233.44;4454653;32;32651;-63
2022/09/05 12:55:18;;;;;;;;;;;;;;;27.47;35.26;100235.47;4474856;32;32607;-63
2022/09/05 12:57:46;;;;;;;;;;;;;;;28.24;34.80;100230.22;4471244;32;34006;-64
2022/09/05 13:00:42;;;;;;;;;;;;;;;27.56;34.99;100225.94;4477944;32;34909;-63
2022/09/05 13:03:29;;;;;;;;;;;;;;;27.90;36.54;100229.50;4473572;32;33874;-65
2022/09/05 13:06:01;;;;;;;;;;;;;;;28.16;35.31;100233.22;4458463;32;31854;-62
2022/09/05 13:08:36;;;;;;;;;;;;;;;28.18;35.00;100228.31;4461005;32;32716;-62
2022/09/05 13:11:07;;;;;;;;;;;;;;;28.32;34.38;100227.22;4465149;32;35606;-63
2022/09/05 13:14:05;;;;;;;;;;;;;;;28.44;33.96;100221.88;4469682;32;35497;-62
2022/09/05 13:16:53;;;;;;;;;;;;;;;28.50;33.52;100213.56;4473212;32;34948;-62
2022/09/05 13:19:27;;;;;;;;;;;;;;;28.24;34.00;100216.44;4462605;32;32553;-63
2022/09/05 13:21:56;;;;;;;;;;;;;;;28.20;34.02;100207.78;4471183;32;33925;-62
2022/09/05 13:24:29;;;;;;;;;;;;;;;28.18;33.84;100204.41;4478347;32;35127;-62
2022/09/05 13:26:58;;;;;;;;;;;;;;;28.31;34.27;100204.38;4458536;32;31910;-62
2022/09/05 13:29:36;;;;;;;;;;;;;;;28.03;34.86;100207.44;4477799;32;33950;-62
2022/09/05 13:32:29;;;;;;;;;;;;;;;27.79;34.86;100203.50;4465007;32;33886;-62
2022/09/05 13:35:24;;;;;;;;;;;;;;;28.21;34.30;100203.13;4475698;32;34692;-62
2022/09/05 13:38:12;;;;;;;;;;;;;;;27.78;35.01;100198.22;4475253;32;32919;-61
2022/09/05 13:41:00;;;;;;;;;;;;;;;27.94;35.82;100199.66;4481611;31;33847;-61
2022/09/05 13:43:28;;;;;;;;;;;;;;;28.25;35.00;100202.47;4470659;32;32731;-62
2022/09/05 13:46:05;;;;;;;;;;;;;;;28.54;33.61;100194.72;4474434;32;35048;-61
2022/09/05 13:48:33;;;;;;;;;;;;;;;28.37;33.30;100193.53;4470232;32;34430;-62